createdAt,value
2017-12-15T00:13:35.277Z,1.43
2017-12-15T00:34:12.740Z,1.40
2017-12-15T00:54:46.481Z,1.53
2017-12-15T01:15:21.762Z,1.93
2017-12-15T01:35:56.708Z,2.17
2017-12-15T01:56:33.227Z,1.23
2017-12-15T02:17:07.445Z,1.73
2017-12-15T02:37:43.448Z,0.80
2017-12-15T02:58:16.896Z,1.00
2017-12-15T03:18:52.763Z,1.37
2017-12-15T03:39:27.108Z,2.00
2017-12-15T04:00:03.304Z,6.30
2017-12-15T04:20:38.573Z,3.17
2017-12-15T04:41:14.769Z,1.37
2017-12-15T05:01:48.197Z,2.97
2017-12-15T05:22:23.162Z,4.03
2017-12-15T05:42:57.205Z,2.73
2017-12-15T06:03:33.704Z,4.37
2017-12-15T06:24:08.669Z,3.73
2017-12-15T06:44:44.244Z,15.40
2017-12-15T07:05:15.226Z,12.40
2017-12-15T07:25:48.647Z,6.10
2017-12-15T07:46:24.065Z,5.00
2017-12-15T08:06:55.198Z,4.23
2017-12-15T08:27:26.164Z,4.70
2017-12-15T08:48:01.440Z,2.30
2017-12-15T09:08:35.790Z,1.97
2017-12-15T09:29:08.911Z,2.17
2017-12-15T09:49:42.033Z,3.80
2017-12-15T10:10:19.564Z,4.63
2017-12-15T10:30:58.835Z,2.93
2017-12-15T10:51:38.105Z,2.70
2017-12-15T11:12:15.100Z,2.10
2017-12-15T11:32:50.629Z,1.23
2017-12-15T11:53:26.564Z,1.27
2017-12-15T12:14:00.038Z,1.37
2017-12-15T12:34:34.035Z,1.03
2017-12-15T12:55:06.235Z,1.30
2017-12-15T13:15:41.815Z,2.07
2017-12-15T13:36:16.775Z,2.33
2017-12-15T13:56:52.979Z,6.00
2017-12-15T14:17:26.092Z,6.03
2017-12-15T14:38:01.363Z,8.50
2017-12-15T14:58:36.636Z,3.27
2017-12-15T15:19:12.825Z,1.67
2017-12-15T15:39:48.377Z,2.30
2017-12-15T16:00:23.373Z,4.97
2017-12-15T16:20:57.416Z,5.30
2017-12-15T16:41:30.844Z,10.10
2017-12-15T17:02:03.964Z,4.87
2017-12-15T17:22:37.084Z,7.80
2017-12-15T17:43:12.356Z,7.00
2017-12-15T18:03:48.550Z,16.40
2017-12-15T18:24:25.977Z,6.13
2017-12-15T18:45:00.020Z,11.27
2017-12-15T19:05:35.293Z,10.37
2017-12-15T19:26:07.492Z,5.70
2017-12-15T19:46:44.003Z,5.60
2017-12-15T20:07:18.958Z,7.17
2017-12-15T20:27:54.226Z,10.40
2017-12-15T20:48:29.500Z,6.43
2017-12-15T21:09:05.697Z,8.23
2017-12-15T21:29:41.890Z,5.70
2017-12-15T21:50:15.376Z,8.93
2017-12-15T22:10:48.441Z,7.97
2017-12-15T22:31:22.480Z,13.10
2017-12-15T22:51:57.755Z,14.27
2017-12-15T23:12:33.023Z,12.63
2017-12-15T23:33:06.149Z,10.93
2017-12-15T23:53:41.416Z,12.13
